sensor_id;sensor_type;location;lat;lon;timestamp;pressure;altitude;pressure_sealevel;temperature;humidity
40920;BME280;26652;50.280;19.026;2023-04-06T00:01:09;98669.97;;;0.70;65.72
40920;BME280;26652;50.280;19.026;2023-04-06T00:03:26;98662.81;;;0.76;65.51
40920;BME280;26652;50.280;19.026;2023-04-06T00:05:39;98666.69;;;0.80;65.45
40920;BME280;26652;50.280;19.026;2023-04-06T00:07:52;98672.41;;;0.82;65.34
40920;BME280;26652;50.280;19.026;2023-04-06T00:10:02;98655.41;;;0.75;65.42
40920;BME280;26652;50.280;19.026;2023-04-06T00:12:16;98672.41;;;0.82;65.33
40920;BME280;26652;50.280;19.026;2023-04-06T00:14:25;98669.19;;;0.80;65.38
40920;BME280;26652;50.280;19.026;2023-04-06T00:16:45;98672.19;;;0.85;65.43
40920;BME280;26652;50.280;19.026;2023-04-06T00:18:54;98670.31;;;0.76;65.63
40920;BME280;26652;50.280;19.026;2023-04-06T00:21:13;98666.56;;;0.71;65.94
40920;BME280;26652;50.280;19.026;2023-04-06T00:23:31;98668.94;;;0.72;66.19
40920;BME280;26652;50.280;19.026;2023-04-06T00:25:43;98675.22;;;0.78;66.04
40920;BME280;26652;50.280;19.026;2023-04-06T00:27:51;98663.03;;;0.73;66.31
40920;BME280;26652;50.280;19.026;2023-04-06T00:30:05;98671.22;;;0.75;66.30
40920;BME280;26652;50.280;19.026;2023-04-06T00:32:19;98664.84;;;0.71;66.46
40920;BME280;26652;50.280;19.026;2023-04-06T00:34:32;98664.41;;;0.77;66.60
40920;BME280;26652;50.280;19.026;2023-04-06T00:36:41;98663.81;;;0.74;66.67
40920;BME280;26652;50.280;19.026;2023-04-06T00:38:53;98666.91;;;0.77;66.70
40920;BME280;26652;50.280;19.026;2023-04-06T00:41:04;98663.97;;;0.83;66.69
40920;BME280;26652;50.280;19.026;2023-04-06T00:43:16;98659.06;;;0.82;66.68
40920;BME280;26652;50.280;19.026;2023-04-06T00:45:24;98657.38;;;0.82;66.78
40920;BME280;26652;50.280;19.026;2023-04-06T00:47:40;98659.41;;;0.77;67.02
40920;BME280;26652;50.280;19.026;2023-04-06T00:49:54;98658.59;;;0.77;67.14
40920;BME280;26652;50.280;19.026;2023-04-06T00:52:10;98654.59;;;0.74;67.39
40920;BME280;26652;50.280;19.026;2023-04-06T00:54:16;98658.34;;;0.69;67.59
40920;BME280;26652;50.280;19.026;2023-04-06T00:56:34;98656.16;;;0.64;67.61
40920;BME280;26652;50.280;19.026;2023-04-06T00:58:40;98654.34;;;0.66;67.70
40920;BME280;26652;50.280;19.026;2023-04-06T01:01:04;98650.16;;;0.67;67.65
40920;BME280;26652;50.280;19.026;2023-04-06T01:03:19;98649.34;;;0.66;67.80
40920;BME280;26652;50.280;19.026;2023-04-06T01:05:34;98649.47;;;0.64;67.95
40920;BME280;26652;50.280;19.026;2023-04-06T01:07:44;98650.44;;;0.51;68.59
40920;BME280;26652;50.280;19.026;2023-04-06T01:10:01;98647.13;;;0.50;68.69
40920;BME280;26652;50.280;19.026;2023-04-06T01:12:16;98637.19;;;0.38;68.85
40920;BME280;26652;50.280;19.026;2023-04-06T01:14:27;98647.69;;;0.43;68.78
40920;BME280;26652;50.280;19.026;2023-04-06T01:16:43;98647.62;;;0.31;69.28
40920;BME280;26652;50.280;19.026;2023-04-06T01:18:56;98643.63;;;0.29;69.74
40920;BME280;26652;50.280;19.026;2023-04-06T01:21:05;98653.97;;;0.24;70.02
40920;BME280;26652;50.280;19.026;2023-04-06T01:23:25;98656.69;;;0.21;70.30
40920;BME280;26652;50.280;19.026;2023-04-06T01:25:37;98650.63;;;0.13;70.45
40920;BME280;26652;50.280;19.026;2023-04-06T01:27:49;98648.00;;;0.14;70.62
40920;BME280;26652;50.280;19.026;2023-04-06T01:29:58;98643.72;;;-0.08;71.43
40920;BME280;26652;50.280;19.026;2023-04-06T01:32:16;98648.62;;;-0.19;72.41
40920;BME280;26652;50.280;19.026;2023-04-06T01:34:30;98641.38;;;-0.35;72.80
40920;BME280;26652;50.280;19.026;2023-04-06T01:36:44;98644.97;;;-0.26;73.06
40920;BME280;26652;50.280;19.026;2023-04-06T01:39:02;98639.34;;;-0.17;72.82
40920;BME280;26652;50.280;19.026;2023-04-06T01:41:20;98636.53;;;-0.12;72.66
40920;BME280;26652;50.280;19.026;2023-04-06T01:43:28;98630.72;;;-0.13;72.96
40920;BME280;26652;50.280;19.026;2023-04-06T01:45:42;98647.00;;;-0.07;73.07
40920;BME280;26652;50.280;19.026;2023-04-06T01:47:50;98649.75;;;-0.23;73.84
40920;BME280;26652;50.280;19.026;2023-04-06T01:50:11;98638.31;;;-0.14;73.46
40920;BME280;26652;50.280;19.026;2023-04-06T01:52:20;98636.91;;;-0.06;73.05
40920;BME280;26652;50.280;19.026;2023-04-06T01:54:44;98642.00;;;-0.07;73.14
40920;BME280;26652;50.280;19.026;2023-04-06T01:56:52;98635.03;;;-0.15;73.28
40920;BME280;26652;50.280;19.026;2023-04-06T01:59:13;98643.22;;;-0.13;73.04
40920;BME280;26652;50.280;19.026;2023-04-06T02:01:28;98640.41;;;-0.08;72.77
40920;BME280;26652;50.280;19.026;2023-04-06T02:03:48;98634.50;;;-0.07;72.46
40920;BME280;26652;50.280;19.026;2023-04-06T02:05:56;98638.75;;;0.04;72.13
40920;BME280;26652;50.280;19.026;2023-04-06T02:08:15;98627.94;;;0.03;71.87
40920;BME280;26652;50.280;19.026;2023-04-06T02:10:24;98633.31;;;0.10;71.68
40920;BME280;26652;50.280;19.026;2023-04-06T02:12:40;98633.53;;;0.07;71.45
40920;BME280;26652;50.280;19.026;2023-04-06T02:14:54;98638.53;;;0.07;71.35
40920;BME280;26652;50.280;19.026;2023-04-06T02:17:27;98628.19;;;0.00;71.28
40920;BME280;26652;50.280;19.026;2023-04-06T02:19:39;98626.00;;;-0.05;71.16
40920;BME280;26652;50.280;19.026;2023-04-06T02:21:53;98636.00;;;-0.05;71.52
40920;BME280;26652;50.280;19.026;2023-04-06T02:24:01;98627.00;;;-0.07;71.33
40920;BME280;26652;50.280;19.026;2023-04-06T02:26:15;98632.38;;;-0.01;71.33
40920;BME280;26652;50.280;19.026;2023-04-06T02:28:24;98629.53;;;0.04;71.10
40920;BME280;26652;50.280;19.026;2023-04-06T02:30:36;98635.22;;;0.06;71.11
40920;BME280;26652;50.280;19.026;2023-04-06T02:32:46;98631.03;;;0.07;71.03
40920;BME280;26652;50.280;19.026;2023-04-06T02:35:02;98628.19;;;0.00;71.81
40920;BME280;26652;50.280;19.026;2023-04-06T02:37:11;98631.19;;;-0.08;72.11
40920;BME280;26652;50.280;19.026;2023-04-06T02:39:25;98628.81;;;-0.09;72.32
40920;BME280;26652;50.280;19.026;2023-04-06T02:41:37;98624.72;;;-0.10;72.34
40920;BME280;26652;50.280;19.026;2023-04-06T02:43:51;98619.00;;;-0.12;72.44
40920;BME280;26652;50.280;19.026;2023-04-06T02:45:59;98628.81;;;-0.09;72.50
40920;BME280;26652;50.280;19.026;2023-04-06T02:48:21;98625.59;;;-0.11;72.39
40920;BME280;26652;50.280;19.026;2023-04-06T02:50:39;98631.50;;;-0.12;72.56
40920;BME280;26652;50.280;19.026;2023-04-06T02:52:59;98628.91;;;-0.11;72.59
40920;BME280;26652;50.280;19.026;2023-04-06T02:55:07;98633.31;;;-0.14;72.63
40920;BME280;26652;50.280;19.026;2023-04-06T02:57:16;98639.94;;;-0.13;72.51
40920;BME280;26652;50.280;19.026;2023-04-06T02:59:29;98632.53;;;-0.15;72.71
40920;BME280;26652;50.280;19.026;2023-04-06T03:01:40;98634.53;;;-0.20;73.05
40920;BME280;26652;50.280;19.026;2023-04-06T03:03:59;98635.53;;;-0.22;72.85
40920;BME280;26652;50.280;19.026;2023-04-06T03:06:13;98631.16;;;-0.31;73.33
40920;BME280;26652;50.280;19.026;2023-04-06T03:08:22;98637.66;;;-0.29;73.54
40920;BME280;26652;50.280;19.026;2023-04-06T03:10:36;98627.75;;;-0.30;73.31
40920;BME280;26652;50.280;19.026;2023-04-06T03:12:44;98636.94;;;-0.18;73.11
40920;BME280;26652;50.280;19.026;2023-04-06T03:15:01;98634.66;;;-0.21;73.09
40920;BME280;26652;50.280;19.026;2023-04-06T03:17:07;98642.56;;;-0.27;73.25
40920;BME280;26652;50.280;19.026;2023-04-06T03:19:19;98635.38;;;-0.32;73.62
40920;BME280;26652;50.280;19.026;2023-04-06T03:21:26;98643.06;;;-0.35;73.82
40920;BME280;26652;50.280;19.026;2023-04-06T03:23:38;98633.38;;;-0.40;73.97
40920;BME280;26652;50.280;19.026;2023-04-06T03:25:51;98634.69;;;-0.34;73.72
40920;BME280;26652;50.280;19.026;2023-04-06T03:28:05;98639.56;;;-0.32;73.56
40920;BME280;26652;50.280;19.026;2023-04-06T03:30:13;98628.87;;;-0.35;73.48
40920;BME280;26652;50.280;19.026;2023-04-06T03:32:28;98641.78;;;-0.41;73.82
40920;BME280;26652;50.280;19.026;2023-04-06T03:34:37;98632.50;;;-0.39;73.63
40920;BME280;26652;50.280;19.026;2023-04-06T03:36:48;98641.47;;;-0.36;73.70
40920;BME280;26652;50.280;19.026;2023-04-06T03:38:55;98634.09;;;-0.38;73.56
40920;BME280;26652;50.280;19.026;2023-04-06T03:41:11;98648.16;;;-0.24;73.44
40920;BME280;26652;50.280;19.026;2023-04-06T03:43:19;98647.34;;;-0.24;73.16
40920;BME280;26652;50.280;19.026;2023-04-06T03:45:31;98649.66;;;-0.21;73.12
40920;BME280;26652;50.280;19.026;2023-04-06T03:47:44;98635.28;;;-0.30;73.10
40920;BME280;26652;50.280;19.026;2023-04-06T03:49:56;98646.66;;;-0.26;73.19
40920;BME280;26652;50.280;19.026;2023-04-06T03:52:08;98646.66;;;-0.26;73.19
40920;BME280;26652;50.280;19.026;2023-04-06T03:54:24;98644.37;;;-0.29;73.29
40920;BME280;26652;50.280;19.026;2023-04-06T03:56:37;98646.78;;;-0.41;73.87
40920;BME280;26652;50.280;19.026;2023-04-06T03:58:51;98646.69;;;-0.39;73.84
40920;BME280;26652;50.280;19.026;2023-04-06T04:00:59;98652.37;;;-0.37;73.54
40920;BME280;26652;50.280;19.026;2023-04-06T04:03:30;98645.00;;;-0.39;73.39
40920;BME280;26652;50.280;19.026;2023-04-06T04:05:43;98641.47;;;-0.36;73.21
40920;BME280;26652;50.280;19.026;2023-04-06T04:07:57;98651.81;;;-0.53;73.47
40920;BME280;26652;50.280;19.026;2023-04-06T04:10:05;98650.09;;;-0.53;74.05
40920;BME280;26652;50.280;19.026;2023-04-06T04:12:21;98653.91;;;-0.47;73.82
40920;BME280;26652;50.280;19.026;2023-04-06T04:14:30;98652.00;;;-0.44;73.79
40920;BME280;26652;50.280;19.026;2023-04-06T04:16:52;98652.91;;;-0.57;73.64
40920;BME280;26652;50.280;19.026;2023-04-06T04:19:06;98653.91;;;-0.60;74.15
40920;BME280;26652;50.280;19.026;2023-04-06T04:21:33;98642.53;;;-0.64;74.34
40920;BME280;26652;50.280;19.026;2023-04-06T04:23:43;98648.12;;;-0.73;74.61
40920;BME280;26652;50.280;19.026;2023-04-06T04:25:54;98648.31;;;-0.63;74.91
40920;BME280;26652;50.280;19.026;2023-04-06T04:28:07;98654.72;;;-0.59;74.91
40920;BME280;26652;50.280;19.026;2023-04-06T04:30:21;98640.03;;;-0.77;75.05
40920;BME280;26652;50.280;19.026;2023-04-06T04:32:29;98641.63;;;-0.88;75.62
40920;BME280;26652;50.280;19.026;2023-04-06T04:34:48;98651.34;;;-0.84;76.25
40920;BME280;26652;50.280;19.026;2023-04-06T04:36:56;98655.41;;;-0.70;75.92
40920;BME280;26652;50.280;19.026;2023-04-06T04:39:20;98652.53;;;-0.77;75.86
40920;BME280;26652;50.280;19.026;2023-04-06T04:41:34;98655.03;;;-0.64;75.71
40920;BME280;26652;50.280;19.026;2023-04-06T04:43:57;98652.13;;;-0.58;75.74
40920;BME280;26652;50.280;19.026;2023-04-06T04:46:08;98647.13;;;-0.58;75.54
40920;BME280;26652;50.280;19.026;2023-04-06T04:48:24;98654.63;;;-0.58;75.65
40920;BME280;26652;50.280;19.026;2023-04-06T04:50:35;98648.00;;;-0.46;75.02
40920;BME280;26652;50.280;19.026;2023-04-06T04:52:58;98651.09;;;-0.43;74.77
40920;BME280;26652;50.280;19.026;2023-04-06T04:55:13;98655.72;;;-0.49;75.25
40920;BME280;26652;50.280;19.026;2023-04-06T04:57:25;98654.47;;;-0.31;75.35
40920;BME280;26652;50.280;19.026;2023-04-06T04:59:35;98653.66;;;-0.31;75.17
40920;BME280;26652;50.280;19.026;2023-04-06T05:01:50;98653.56;;;-0.30;74.71
40920;BME280;26652;50.280;19.026;2023-04-06T05:03:58;98645.72;;;-0.13;74.35
40920;BME280;26652;50.280;19.026;2023-04-06T05:06:15;98645.34;;;0.05;73.21
40920;BME280;26652;50.280;19.026;2023-04-06T05:08:24;98640.78;;;-0.02;72.76
40920;BME280;26652;50.280;19.026;2023-04-06T05:10:39;98645.13;;;0.08;72.25
40920;BME280;26652;50.280;19.026;2023-04-06T05:12:45;98647.91;;;0.16;72.43
40920;BME280;26652;50.280;19.026;2023-04-06T05:14:59;98643.22;;;0.35;71.12
40920;BME280;26652;50.280;19.026;2023-04-06T05:17:11;98642.81;;;0.52;70.60
40920;BME280;26652;50.280;19.026;2023-04-06T05:19:26;98641.69;;;0.56;69.54
40920;BME280;26652;50.280;19.026;2023-04-06T05:21:35;98645.16;;;0.78;68.16
40920;BME280;26652;50.280;19.026;2023-04-06T05:24:08;98649.06;;;0.93;67.24
40920;BME280;26652;50.280;19.026;2023-04-06T05:26:20;98650.31;;;1.10;66.62
40920;BME280;26652;50.280;19.026;2023-04-06T05:28:34;98654.31;;;1.01;66.34
40920;BME280;26652;50.280;19.026;2023-04-06T05:30:43;98649.41;;;1.11;67.27
40920;BME280;26652;50.280;19.026;2023-04-06T05:32:59;98645.56;;;1.29;67.50
40920;BME280;26652;50.280;19.026;2023-04-06T05:35:14;98642.03;;;1.31;66.74
40920;BME280;26652;50.280;19.026;2023-04-06T05:37:25;98650.22;;;1.34;66.54
40920;BME280;26652;50.280;19.026;2023-04-06T05:39:35;98648.88;;;1.41;66.49
40920;BME280;26652;50.280;19.026;2023-04-06T05:41:49;98651.13;;;1.55;66.49
40920;BME280;26652;50.280;19.026;2023-04-06T05:44:04;98654.66;;;1.63;65.53
40920;BME280;26652;50.280;19.026;2023-04-06T05:46:23;98648.28;;;1.59;65.16
40920;BME280;26652;50.280;19.026;2023-04-06T05:48:38;98645.41;;;1.75;65.20
40920;BME280;26652;50.280;19.026;2023-04-06T05:50:50;98636.41;;;1.84;64.87
40920;BME280;26652;50.280;19.026;2023-04-06T05:52:59;98637.19;;;1.84;64.71
40920;BME280;26652;50.280;19.026;2023-04-06T05:55:23;98640.16;;;1.89;63.68
40920;BME280;26652;50.280;19.026;2023-04-06T05:57:37;98644.59;;;1.97;62.78
40920;BME280;26652;50.280;19.026;2023-04-06T05:59:50;98644.69;;;1.95;62.83
40920;BME280;26652;50.280;19.026;2023-04-06T06:02:07;98647.03;;;2.08;63.31
40920;BME280;26652;50.280;19.026;2023-04-06T06:04:19;98644.37;;;2.21;63.18
40920;BME280;26652;50.280;19.026;2023-04-06T06:06:28;98642.06;;;2.29;62.63
40920;BME280;26652;50.280;19.026;2023-04-06T06:08:55;98643.06;;;2.38;61.72
40920;BME280;26652;50.280;19.026;2023-04-06T06:11:04;98646.94;;;2.42;61.75
40920;BME280;26652;50.280;19.026;2023-04-06T06:13:16;98641.84;;;2.53;61.20
40920;BME280;26652;50.280;19.026;2023-04-06T06:15:27;98641.25;;;2.60;60.66
40920;BME280;26652;50.280;19.026;2023-04-06T06:17:39;98644.69;;;2.59;60.18
40920;BME280;26652;50.280;19.026;2023-04-06T06:19:54;98641.88;;;2.74;61.20
40920;BME280;26652;50.280;19.026;2023-04-06T06:22:04;98635.13;;;2.74;60.53
40920;BME280;26652;50.280;19.026;2023-04-06T06:24:10;98637.37;;;2.98;59.47
40920;BME280;26652;50.280;19.026;2023-04-06T06:26:22;98647.88;;;3.13;58.04
40920;BME280;26652;50.280;19.026;2023-04-06T06:28:30;98643.94;;;3.20;57.22
40920;BME280;26652;50.280;19.026;2023-04-06T06:30:45;98645.97;;;3.26;57.04
40920;BME280;26652;50.280;19.026;2023-04-06T06:32:54;98646.16;;;3.44;57.66
40920;BME280;26652;50.280;19.026;2023-04-06T06:35:07;98646.16;;;3.44;57.28
40920;BME280;26652;50.280;19.026;2023-04-06T06:37:14;98652.00;;;3.44;56.38
40920;BME280;26652;50.280;19.026;2023-04-06T06:39:34;98647.84;;;3.64;56.59
40920;BME280;26652;50.280;19.026;2023-04-06T06:41:43;98645.75;;;3.79;55.16
40920;BME280;26652;50.280;19.026;2023-04-06T06:44:06;98652.28;;;3.91;54.70
40920;BME280;26652;50.280;19.026;2023-04-06T06:46:14;98652.03;;;4.04;54.54
40920;BME280;26652;50.280;19.026;2023-04-06T06:48:31;98651.59;;;3.89;54.98
40920;BME280;26652;50.280;19.026;2023-04-06T06:50:40;98659.31;;;4.07;53.24
40920;BME280;26652;50.280;19.026;2023-04-06T06:52:53;98653.63;;;4.05;52.22
40920;BME280;26652;50.280;19.026;2023-04-06T06:55:02;98651.13;;;4.14;53.58
40920;BME280;26652;50.280;19.026;2023-04-06T06:57:21;98665.00;;;3.99;52.87
40920;BME280;26652;50.280;19.026;2023-04-06T06:59:37;98661.56;;;4.29;51.85
40920;BME280;26652;50.280;19.026;2023-04-06T07:01:58;98656.81;;;4.45;52.42
40920;BME280;26652;50.280;19.026;2023-04-06T07:04:12;98652.25;;;4.87;51.67
40920;BME280;26652;50.280;19.026;2023-04-06T07:06:26;98658.59;;;5.01;51.47
40920;BME280;26652;50.280;19.026;2023-04-06T07:08:41;98657.94;;;5.36;50.23
40920;BME280;26652;50.280;19.026;2023-04-06T07:10:55;98660.00;;;5.50;49.91
40920;BME280;26652;50.280;19.026;2023-04-06T07:13:04;98662.06;;;5.65;49.15
40920;BME280;26652;50.280;19.026;2023-04-06T07:15:18;98660.16;;;5.49;50.24
40920;BME280;26652;50.280;19.026;2023-04-06T07:17:27;98658.00;;;5.81;49.21
40920;BME280;26652;50.280;19.026;2023-04-06T07:19:39;98657.84;;;6.28;48.24
40920;BME280;26652;50.280;19.026;2023-04-06T07:21:50;98665.56;;;6.27;48.82
40920;BME280;26652;50.280;19.026;2023-04-06T07:24:11;98671.84;;;6.76;48.15
40920;BME280;26652;50.280;19.026;2023-04-06T07:26:29;98664.31;;;7.44;45.86
40920;BME280;26652;50.280;19.026;2023-04-06T07:28:46;98674.25;;;8.46;44.69
40920;BME280;26652;50.280;19.026;2023-04-06T07:30:55;98670.22;;;9.25;42.52
40920;BME280;26652;50.280;19.026;2023-04-06T07:33:12;98674.03;;;9.21;42.33
40920;BME280;26652;50.280;19.026;2023-04-06T07:35:18;98671.84;;;9.48;40.96
40920;BME280;26652;50.280;19.026;2023-04-06T07:37:29;98671.22;;;10.16;40.83
40920;BME280;26652;50.280;19.026;2023-04-06T07:39:38;98670.53;;;10.45;39.34
40920;BME280;26652;50.280;19.026;2023-04-06T07:41:49;98674.06;;;10.22;38.95
40920;BME280;26652;50.280;19.026;2023-04-06T07:44:02;98646.97;;;9.75;40.76
40920;BME280;26652;50.280;19.026;2023-04-06T07:46:11;98674.31;;;9.73;39.54
40920;BME280;26652;50.280;19.026;2023-04-06T07:48:16;98666.78;;;9.48;39.98
40920;BME280;26652;50.280;19.026;2023-04-06T07:50:32;98674.09;;;9.82;39.20
40920;BME280;26652;50.280;19.026;2023-04-06T07:52:40;98655.97;;;9.46;39.87
40920;BME280;26652;50.280;19.026;2023-04-06T07:54:55;98661.09;;;8.75;41.27
40920;BME280;26652;50.280;19.026;2023-04-06T07:57:06;98666.94;;;8.67;41.56
40920;BME280;26652;50.280;19.026;2023-04-06T07:59:34;98668.22;;;8.55;42.04
40920;BME280;26652;50.280;19.026;2023-04-06T08:01:48;98668.94;;;7.99;42.38
40920;BME280;26652;50.280;19.026;2023-04-06T08:04:05;98668.19;;;7.64;43.62
40920;BME280;26652;50.280;19.026;2023-04-06T08:06:15;98665.69;;;7.04;44.62
40920;BME280;26652;50.280;19.026;2023-04-06T08:08:34;98666.81;;;6.84;44.77
40920;BME280;26652;50.280;19.026;2023-04-06T08:10:45;98668.69;;;6.20;45.06
40920;BME280;26652;50.280;19.026;2023-04-06T08:13:01;98659.37;;;6.03;46.42
40920;BME280;26652;50.280;19.026;2023-04-06T08:15:07;98658.72;;;6.01;46.72
40920;BME280;26652;50.280;19.026;2023-04-06T08:17:21;98658.91;;;5.63;47.21
40920;BME280;26652;50.280;19.026;2023-04-06T08:19:35;98645.09;;;5.57;47.24
40920;BME280;26652;50.280;19.026;2023-04-06T08:21:50;98655.12;;;5.39;48.14
40920;BME280;26652;50.280;19.026;2023-04-06T08:24:06;98648.44;;;5.20;48.37
40920;BME280;26652;50.280;19.026;2023-04-06T08:26:17;98647.94;;;5.17;48.70
40920;BME280;26652;50.280;19.026;2023-04-06T08:28:32;98656.34;;;5.08;49.00
40920;BME280;26652;50.280;19.026;2023-04-06T08:30:46;98656.06;;;5.11;49.28
40920;BME280;26652;50.280;19.026;2023-04-06T08:33:01;98646.16;;;4.90;49.06
40920;BME280;26652;50.280;19.026;2023-04-06T08:35:21;98652.25;;;4.87;49.31
40920;BME280;26652;50.280;19.026;2023-04-06T08:37:30;98634.59;;;4.97;49.22
40920;BME280;26652;50.280;19.026;2023-04-06T08:39:44;98644.00;;;5.05;50.02
40920;BME280;26652;50.280;19.026;2023-04-06T08:41:58;98646.13;;;5.00;50.11
40920;BME280;26652;50.280;19.026;2023-04-06T08:44:11;98642.84;;;4.70;49.55
40920;BME280;26652;50.280;19.026;2023-04-06T08:46:20;98643.41;;;4.64;49.92
40920;BME280;26652;50.280;19.026;2023-04-06T08:48:34;98633.84;;;4.68;50.55
40920;BME280;26652;50.280;19.026;2023-04-06T08:50:40;98649.75;;;4.78;50.11
40920;BME280;26652;50.280;19.026;2023-04-06T08:52:57;98649.91;;;4.28;50.26
40920;BME280;26652;50.280;19.026;2023-04-06T08:55:12;98637.84;;;4.12;51.06
40920;BME280;26652;50.280;19.026;2023-04-06T08:57:27;98634.78;;;4.18;51.02
40920;BME280;26652;50.280;19.026;2023-04-06T08:59:35;98637.84;;;4.12;51.44
40920;BME280;26652;50.280;19.026;2023-04-06T09:01:47;98632.81;;;4.03;51.76
40920;BME280;26652;50.280;19.026;2023-04-06T09:03:58;98642.38;;;4.09;51.42
40920;BME280;26652;50.280;19.026;2023-04-06T09:06:10;98634.28;;;4.15;51.81
40920;BME280;26652;50.280;19.026;2023-04-06T09:08:26;98628.72;;;4.11;51.90
40920;BME280;26652;50.280;19.026;2023-04-06T09:10:41;98634.81;;;4.09;51.91
40920;BME280;26652;50.280;19.026;2023-04-06T09:13:02;98633.06;;;4.19;52.81
40920;BME280;26652;50.280;19.026;2023-04-06T09:15:21;98628.03;;;4.09;51.77
40920;BME280;26652;50.280;19.026;2023-04-06T09:17:32;98626.44;;;4.18;52.38
40920;BME280;26652;50.280;19.026;2023-04-06T09:19:49;98628.81;;;4.29;52.00
40920;BME280;26652;50.280;19.026;2023-04-06T09:22:05;98625.25;;;4.22;52.05
40920;BME280;26652;50.280;19.026;2023-04-06T09:24:16;98618.34;;;4.43;52.11
40920;BME280;26652;50.280;19.026;2023-04-06T09:26:43;98626.03;;;4.51;51.69
40920;BME280;26652;50.280;19.026;2023-04-06T09:28:57;98622.81;;;4.69;51.66
40920;BME280;26652;50.280;19.026;2023-04-06T09:31:05;98619.13;;;4.63;51.49
40920;BME280;26652;50.280;19.026;2023-04-06T09:33:25;98606.13;;;4.68;51.32
40920;BME280;26652;50.280;19.026;2023-04-06T09:35:33;98614.47;;;4.78;51.08
40920;BME280;26652;50.280;19.026;2023-04-06T09:37:54;98613.34;;;5.00;50.26
40920;BME280;26652;50.280;19.026;2023-04-06T09:40:06;98611.59;;;5.10;50.04
40920;BME280;26652;50.280;19.026;2023-04-06T09:42:26;98610.78;;;5.09;49.59
40920;BME280;26652;50.280;19.026;2023-04-06T09:44:35;98603.81;;;5.21;49.79
40920;BME280;26652;50.280;19.026;2023-04-06T09:46:53;98595.41;;;5.03;49.89
40920;BME280;26652;50.280;19.026;2023-04-06T09:49:01;98602.38;;;4.81;50.40
40920;BME280;26652;50.280;19.026;2023-04-06T09:51:14;98605.06;;;5.17;50.50
40920;BME280;26652;50.280;19.026;2023-04-06T09:53:21;98602.66;;;5.15;49.57
40920;BME280;26652;50.280;19.026;2023-04-06T09:55:42;98594.47;;;5.04;49.65
40920;BME280;26652;50.280;19.026;2023-04-06T09:58:19;98595.69;;;5.27;50.32
40920;BME280;26652;50.280;19.026;2023-04-06T10:00:42;98590.78;;;5.53;49.16
40920;BME280;26652;50.280;19.026;2023-04-06T10:05:55;98596.66;;;5.44;49.03
40920;BME280;26652;50.280;19.026;2023-04-06T10:08:08;98598.44;;;5.61;48.70
40920;BME280;26652;50.280;19.026;2023-04-06T10:10:18;98585.97;;;6.05;48.77
40920;BME280;26652;50.280;19.026;2023-04-06T10:12:24;98584.53;;;6.28;47.15
40920;BME280;26652;50.280;19.026;2023-04-06T10:14:34;98588.25;;;6.16;46.80
40920;BME280;26652;50.280;19.026;2023-04-06T10:16:41;98587.22;;;6.27;47.65
40920;BME280;26652;50.280;19.026;2023-04-06T10:19:05;98591.59;;;6.42;46.74
40920;BME280;26652;50.280;19.026;2023-04-06T10:21:14;98586.72;;;6.67;46.29
40920;BME280;26652;50.280;19.026;2023-04-06T10:23:58;98583.00;;;6.53;45.93
40920;BME280;26652;50.280;19.026;2023-04-06T10:26:04;98585.84;;;6.76;46.79
40920;BME280;26652;50.280;19.026;2023-04-06T10:28:20;98583.47;;;6.31;45.73
40920;BME280;26652;50.280;19.026;2023-04-06T10:30:25;98584.41;;;6.30;46.71
40920;BME280;26652;50.280;19.026;2023-04-06T10:32:38;98577.47;;;6.32;46.80
40920;BME280;26652;50.280;19.026;2023-04-06T10:34:46;98585.53;;;6.09;46.99
40920;BME280;26652;50.280;19.026;2023-04-06T10:36:54;98572.59;;;6.12;47.01
40920;BME280;26652;50.280;19.026;2023-04-06T10:39:04;98577.94;;;6.09;47.29
40920;BME280;26652;50.280;19.026;2023-04-06T10:41:18;98566.41;;;5.89;47.23
40920;BME280;26652;50.280;19.026;2023-04-06T10:43:24;98564.09;;;5.96;48.39
40920;BME280;26652;50.280;19.026;2023-04-06T10:45:36;98562.56;;;6.03;48.22
40920;BME280;26652;50.280;19.026;2023-04-06T10:47:41;98570.69;;;5.79;47.94
40920;BME280;26652;50.280;19.026;2023-04-06T10:49:52;98564.03;;;5.60;47.91
40920;BME280;26652;50.280;19.026;2023-04-06T10:51:58;98539.97;;;5.38;48.17
40920;BME280;26652;50.280;19.026;2023-04-06T10:54:09;98559.28;;;5.75;49.08
40920;BME280;26652;50.280;19.026;2023-04-06T10:56:21;98562.13;;;5.89;48.00
40920;BME280;26652;50.280;19.026;2023-04-06T10:58:29;98554.09;;;5.76;47.93
40920;BME280;26652;50.280;19.026;2023-04-06T11:00:46;98553.66;;;5.81;47.55
40920;BME280;26652;50.280;19.026;2023-04-06T11:03:02;98563.44;;;5.94;47.55
40920;BME280;26652;50.280;19.026;2023-04-06T11:05:13;98556.94;;;6.09;47.33
40920;BME280;26652;50.280;19.026;2023-04-06T11:07:31;98552.87;;;6.16;47.25
40920;BME280;26652;50.280;19.026;2023-04-06T11:09:37;98551.81;;;6.18;46.79
40920;BME280;26652;50.280;19.026;2023-04-06T11:11:58;98547.84;;;5.98;48.00
40920;BME280;26652;50.280;19.026;2023-04-06T11:14:04;98556.69;;;5.84;47.32
40920;BME280;26652;50.280;19.026;2023-04-06T11:16:24;98546.75;;;5.83;48.04
40920;BME280;26652;50.280;19.026;2023-04-06T11:18:30;98547.00;;;5.62;48.34
40920;BME280;26652;50.280;19.026;2023-04-06T11:20:46;98549.25;;;5.65;48.41
40920;BME280;26652;50.280;19.026;2023-04-06T11:22:52;98542.53;;;5.56;48.17
40920;BME280;26652;50.280;19.026;2023-04-06T11:25:11;98541.16;;;5.62;48.00
40920;BME280;26652;50.280;19.026;2023-04-06T11:27:20;98550.81;;;5.94;48.53
40920;BME280;26652;50.280;19.026;2023-04-06T11:29:34;98539.66;;;6.22;48.52
40920;BME280;26652;50.280;19.026;2023-04-06T11:31:47;98538.22;;;6.45;47.14
40920;BME280;26652;50.280;19.026;2023-04-06T11:33:58;98540.91;;;6.44;47.09
40920;BME280;26652;50.280;19.026;2023-04-06T11:36:14;98550.22;;;6.43;46.33
40920;BME280;26652;50.280;19.026;2023-04-06T11:38:38;98532.75;;;6.32;46.46
40920;BME280;26652;50.280;19.026;2023-04-06T11:40:44;98540.34;;;6.06;46.82
40920;BME280;26652;50.280;19.026;2023-04-06T11:42:56;98533.56;;;6.07;47.74
40920;BME280;26652;50.280;19.026;2023-04-06T11:45:04;98527.91;;;5.77;47.87
40920;BME280;26652;50.280;19.026;2023-04-06T11:47:26;98523.34;;;5.81;48.40